createdAt,value
2018-12-16T00:00:36.525Z,16.13
2018-12-16T00:03:06.786Z,15.53
2018-12-16T00:05:37.240Z,21.20
2018-12-16T00:08:07.450Z,12.90
2018-12-16T00:10:37.805Z,19.00
2018-12-16T00:13:08.147Z,10.57
2018-12-16T00:15:38.958Z,15.10
2018-12-16T00:18:09.111Z,18.43
2018-12-16T00:20:39.295Z,17.70
2018-12-16T00:23:09.359Z,20.00
2018-12-16T00:25:39.570Z,18.63
2018-12-16T00:28:10.043Z,17.77
2018-12-16T00:30:40.904Z,17.50
2018-12-16T00:33:11.086Z,17.43
2018-12-16T00:35:41.965Z,14.70
2018-12-16T00:38:12.155Z,16.10
2018-12-16T00:40:42.633Z,17.57
2018-12-16T00:43:12.683Z,15.43
2018-12-16T00:45:43.328Z,21.00
2018-12-16T00:48:13.807Z,21.00
2018-12-16T00:50:44.315Z,16.03
2018-12-16T00:53:14.447Z,16.50
2018-12-16T00:55:45.244Z,16.97
2018-12-16T00:58:15.939Z,14.13
2018-12-16T01:00:46.377Z,18.13
2018-12-16T01:03:16.582Z,20.80
2018-12-16T01:05:46.894Z,16.83
2018-12-16T01:08:17.114Z,18.57
2018-12-16T01:10:47.218Z,17.43
2018-12-16T01:13:17.305Z,20.03
2018-12-16T01:15:47.431Z,18.63
2018-12-16T01:18:17.513Z,19.97
2018-12-16T01:20:47.628Z,14.10
2018-12-16T01:23:17.734Z,17.50
2018-12-16T01:25:48.646Z,15.43
2018-12-16T01:28:18.647Z,13.57
2018-12-16T01:30:48.740Z,16.03
2018-12-16T01:33:18.834Z,15.70
2018-12-16T01:35:48.906Z,18.57
2018-12-16T01:38:18.985Z,13.60
2018-12-16T01:40:49.093Z,20.87
2018-12-16T01:43:19.343Z,17.40
2018-12-16T01:45:49.536Z,16.70
2018-12-16T01:48:19.555Z,19.37
2018-12-16T01:50:49.690Z,20.20
2018-12-16T01:53:19.897Z,17.67
2018-12-16T01:55:49.972Z,17.10
2018-12-16T01:58:20.010Z,23.90
2018-12-16T02:00:50.229Z,17.57
2018-12-16T02:03:20.419Z,17.67
2018-12-16T02:05:50.526Z,20.83
2018-12-16T02:08:20.622Z,22.43
2018-12-16T02:10:50.835Z,21.57
2018-12-16T02:13:20.906Z,18.00
2018-12-16T02:15:50.909Z,15.60
2018-12-16T02:18:20.981Z,20.17
2018-12-16T02:20:51.078Z,15.07
2018-12-16T02:23:21.148Z,19.40
2018-12-16T02:25:51.180Z,18.97
2018-12-16T02:28:21.266Z,18.93
2018-12-16T02:30:51.509Z,15.63
2018-12-16T02:33:21.561Z,24.23
2018-12-16T02:35:51.604Z,15.23
2018-12-16T02:38:21.674Z,18.80
2018-12-16T02:40:51.758Z,19.83
2018-12-16T02:43:21.825Z,14.67
2018-12-16T02:45:52.146Z,23.27
2018-12-16T02:48:22.187Z,18.60
2018-12-16T02:50:58.888Z,19.70
2018-12-16T02:53:28.984Z,21.10
2018-12-16T02:55:59.048Z,16.90
2018-12-16T02:58:29.191Z,15.40
2018-12-16T03:00:59.267Z,19.40
2018-12-16T03:03:29.362Z,22.90
2018-12-16T03:05:59.470Z,26.13
2018-12-16T03:08:29.721Z,22.57
2018-12-16T03:10:59.808Z,25.87
2018-12-16T03:13:29.853Z,21.87
2018-12-16T03:16:00.060Z,23.83
2018-12-16T03:18:30.139Z,21.60
2018-12-16T03:21:00.270Z,19.90
2018-12-16T03:23:30.288Z,27.53
2018-12-16T03:26:00.397Z,27.03
2018-12-16T03:28:30.533Z,21.77
2018-12-16T03:31:00.676Z,21.53
2018-12-16T03:33:30.812Z,25.07
2018-12-16T03:36:00.898Z,24.10
2018-12-16T03:38:31.028Z,26.27
2018-12-16T03:41:01.101Z,30.77
2018-12-16T03:43:31.186Z,19.07
2018-12-16T03:46:01.302Z,24.47
2018-12-16T03:48:31.407Z,19.37
2018-12-16T03:51:01.456Z,23.20
2018-12-16T03:53:31.524Z,21.33
2018-12-16T03:56:01.627Z,26.90
2018-12-16T03:58:31.656Z,25.90
2018-12-16T04:01:01.700Z,28.37
2018-12-16T04:03:31.792Z,27.30
2018-12-16T04:06:01.812Z,25.20
2018-12-16T04:08:31.917Z,24.63
2018-12-16T04:11:01.987Z,22.90
2018-12-16T04:13:31.994Z,24.90
2018-12-16T04:16:02.080Z,24.07
2018-12-16T04:18:32.055Z,27.37
2018-12-16T04:21:02.168Z,28.83
2018-12-16T04:23:32.217Z,28.80
2018-12-16T04:26:02.232Z,21.37
2018-12-16T04:28:32.240Z,20.73
2018-12-16T04:31:02.285Z,30.20
2018-12-16T04:33:32.318Z,25.30
2018-12-16T04:36:02.390Z,26.33
2018-12-16T04:38:32.484Z,32.17
2018-12-16T04:41:02.545Z,25.07
2018-12-16T04:43:32.560Z,28.20
2018-12-16T04:46:02.655Z,26.03
2018-12-16T04:48:32.643Z,34.20
2018-12-16T04:51:02.689Z,27.50
2018-12-16T04:53:36.081Z,24.27
2018-12-16T04:56:04.900Z,30.63
2018-12-16T04:58:35.304Z,29.00
2018-12-16T05:01:05.386Z,22.97
2018-12-16T05:03:35.444Z,25.97
2018-12-16T05:06:05.513Z,26.97
2018-12-16T05:08:35.589Z,24.33
2018-12-16T05:11:05.669Z,22.53
2018-12-16T05:13:35.682Z,25.43
2018-12-16T05:16:05.858Z,18.83
2018-12-16T05:18:35.964Z,22.57
2018-12-16T05:21:06.133Z,28.30
2018-12-16T05:23:41.865Z,25.40
2018-12-16T05:26:08.212Z,26.43
2018-12-16T05:28:38.199Z,25.63
2018-12-16T05:31:08.218Z,34.17
2018-12-16T05:33:38.275Z,32.07
2018-12-16T05:36:08.338Z,28.57
2018-12-16T05:38:38.379Z,23.57
2018-12-16T05:41:08.458Z,28.70
2018-12-16T05:43:38.481Z,21.60
2018-12-16T05:46:08.521Z,24.00
2018-12-16T05:48:38.570Z,28.00
2018-12-16T05:51:08.664Z,23.43
2018-12-16T05:53:38.657Z,20.17
2018-12-16T05:56:08.733Z,30.20
2018-12-16T05:58:38.786Z,21.77
2018-12-16T06:01:08.896Z,23.40
2018-12-16T06:03:38.878Z,27.10
2018-12-16T06:06:08.979Z,35.73
2018-12-16T06:08:38.961Z,23.37
2018-12-16T06:11:09.043Z,23.20
2018-12-16T06:13:39.034Z,26.53
2018-12-16T06:16:09.111Z,24.00
2018-12-16T06:18:39.132Z,27.00
2018-12-16T06:21:09.169Z,27.40
2018-12-16T06:23:39.174Z,24.83
2018-12-16T06:26:09.230Z,25.40
2018-12-16T06:28:39.250Z,22.27
2018-12-16T06:31:09.324Z,24.20
2018-12-16T06:33:39.434Z,29.13
2018-12-16T06:36:09.723Z,21.53
2018-12-16T06:38:39.718Z,23.47
2018-12-16T06:41:09.730Z,28.83
2018-12-16T06:43:39.739Z,25.33
2018-12-16T06:46:09.797Z,23.60
2018-12-16T06:48:39.802Z,25.80
2018-12-16T06:51:09.850Z,28.50
2018-12-16T06:53:39.862Z,25.77
2018-12-16T06:56:09.990Z,23.70
2018-12-16T06:58:39.975Z,25.70
2018-12-16T07:01:10.097Z,23.80
2018-12-16T07:03:40.168Z,24.37
2018-12-16T07:06:10.225Z,27.43
2018-12-16T07:08:40.188Z,27.47
2018-12-16T07:11:10.238Z,25.00
2018-12-16T07:13:40.259Z,28.77
2018-12-16T07:16:10.389Z,25.27
2018-12-16T07:18:40.446Z,26.23
2018-12-16T07:21:10.467Z,24.67
2018-12-16T07:23:40.488Z,23.50
2018-12-16T07:26:10.640Z,21.23
2018-12-16T07:28:40.626Z,27.97
2018-12-16T07:31:10.617Z,22.87
2018-12-16T07:33:40.607Z,23.90
2018-12-16T07:36:10.706Z,20.23
2018-12-16T07:38:40.837Z,24.50
2018-12-16T07:41:10.844Z,23.20
2018-12-16T07:43:40.984Z,21.83
2018-12-16T07:46:11.044Z,25.20
2018-12-16T07:48:41.262Z,23.40
2018-12-16T07:51:11.403Z,24.93
2018-12-16T07:53:41.504Z,23.60
2018-12-16T07:56:11.515Z,28.60
2018-12-16T07:58:41.538Z,25.43
2018-12-16T08:01:11.593Z,26.80
2018-12-16T08:03:41.581Z,26.60
2018-12-16T08:06:11.642Z,21.07
2018-12-16T08:08:41.647Z,27.87
2018-12-16T08:11:11.769Z,31.03
2018-12-16T08:13:41.767Z,25.10
2018-12-16T08:16:11.800Z,23.27
2018-12-16T08:18:41.797Z,24.00
2018-12-16T08:21:11.864Z,23.60
2018-12-16T08:23:41.876Z,25.93
2018-12-16T08:26:11.942Z,29.80
2018-12-16T08:28:41.963Z,27.30
2018-12-16T08:31:12.050Z,18.17
2018-12-16T08:33:42.121Z,27.03
2018-12-16T08:36:12.161Z,26.70
2018-12-16T08:38:42.167Z,20.10
2018-12-16T08:41:12.715Z,25.67
2018-12-16T08:43:42.817Z,23.70
2018-12-16T08:46:12.880Z,24.10
2018-12-16T08:48:42.989Z,28.43
2018-12-16T08:51:13.063Z,22.37
2018-12-16T08:53:43.101Z,29.57
2018-12-16T08:56:13.195Z,30.67
2018-12-16T08:58:43.209Z,29.60
2018-12-16T09:01:13.409Z,30.57
2018-12-16T09:03:45.045Z,29.77
2018-12-16T09:06:15.910Z,23.47
2018-12-16T09:08:46.443Z,29.97
2018-12-16T09:11:16.754Z,34.30
2018-12-16T09:13:48.137Z,27.17
2018-12-16T09:16:19.489Z,26.43
2018-12-16T09:18:50.133Z,31.10
2018-12-16T09:21:20.442Z,26.13
2018-12-16T09:23:51.046Z,23.30
2018-12-16T09:26:22.268Z,25.27
2018-12-16T09:28:54.394Z,23.10
2018-12-16T09:31:26.263Z,29.93
2018-12-16T09:33:56.454Z,31.40
2018-12-16T09:36:27.814Z,27.37
2018-12-16T09:38:58.557Z,27.40
2018-12-16T09:41:28.678Z,31.60
2018-12-16T09:43:58.702Z,31.20
2018-12-16T09:46:30.049Z,32.53
2018-12-16T09:49:01.029Z,31.37
2018-12-16T09:51:31.297Z,33.90
2018-12-16T09:54:01.371Z,33.60
2018-12-16T09:56:31.716Z,34.43
2018-12-16T09:59:01.808Z,30.07
2018-12-16T10:01:32.095Z,30.13
2018-12-16T10:04:02.414Z,33.50
2018-12-16T10:06:32.574Z,29.83
2018-12-16T10:09:03.021Z,28.33
2018-12-16T10:11:33.483Z,31.30
2018-12-16T10:14:03.698Z,26.57
2018-12-16T10:16:33.904Z,30.10
2018-12-16T10:19:04.752Z,28.03
2018-12-16T10:21:35.011Z,28.00
2018-12-16T10:24:05.067Z,25.27
2018-12-16T10:26:35.660Z,32.70
2018-12-16T10:29:06.150Z,31.03
2018-12-16T10:31:50.395Z,30.93
2018-12-16T10:34:33.378Z,29.90
2018-12-16T10:37:03.529Z,36.00
2018-12-16T10:39:33.796Z,39.03
2018-12-16T10:42:04.849Z,30.40
2018-12-16T10:44:35.099Z,32.10
2018-12-16T10:47:05.578Z,35.20
2018-12-16T10:49:35.904Z,33.77
2018-12-16T10:52:16.587Z,38.13
2018-12-16T10:54:58.111Z,38.20
2018-12-16T10:57:25.642Z,31.70
2018-12-16T10:59:55.880Z,32.77
2018-12-16T11:02:26.658Z,33.60
2018-12-16T11:04:57.557Z,32.07
2018-12-16T11:07:28.103Z,28.90
2018-12-16T11:09:58.446Z,35.23
2018-12-16T11:12:29.062Z,33.47
2018-12-16T11:14:59.557Z,34.30
2018-12-16T11:17:29.812Z,29.60
2018-12-16T11:20:00.213Z,29.67
2018-12-16T11:22:30.536Z,33.00
2018-12-16T11:25:05.741Z,35.13
2018-12-16T11:27:33.129Z,30.47
2018-12-16T11:30:03.335Z,32.87
2018-12-16T11:32:33.797Z,34.13
2018-12-16T11:35:04.118Z,28.07
2018-12-16T11:37:34.730Z,28.83
2018-12-16T11:40:05.853Z,33.67
2018-12-16T11:42:36.098Z,40.70
2018-12-16T11:45:07.998Z,29.00
2018-12-16T11:47:38.221Z,32.80
2018-12-16T11:50:08.945Z,40.17
2018-12-16T11:52:39.588Z,29.33
2018-12-16T11:55:12.913Z,31.27
2018-12-16T11:57:43.179Z,45.37
2018-12-16T12:00:13.896Z,45.30
2018-12-16T12:02:44.054Z,46.13
2018-12-16T12:05:14.318Z,33.40
2018-12-16T12:07:44.536Z,37.93
2018-12-16T12:10:14.684Z,38.70
2018-12-16T12:12:44.827Z,29.90
2018-12-16T12:15:15.095Z,38.37
2018-12-16T12:18:04.678Z,37.90
2018-12-16T12:20:34.807Z,40.33
2018-12-16T12:23:05.071Z,37.50
2018-12-16T12:25:35.442Z,41.40
2018-12-16T12:28:06.703Z,40.17
2018-12-16T12:30:36.954Z,38.27
2018-12-16T12:33:07.293Z,33.60
2018-12-16T12:35:37.629Z,36.70
2018-12-16T12:38:07.956Z,37.00
2018-12-16T12:40:38.078Z,33.60
2018-12-16T12:43:08.196Z,40.60
2018-12-16T12:45:38.283Z,39.63
2018-12-16T12:48:08.578Z,38.83
2018-12-16T12:50:38.610Z,50.37
2018-12-16T12:53:09.123Z,39.90
2018-12-16T12:55:39.429Z,43.70
2018-12-16T12:58:09.686Z,35.13
2018-12-16T13:00:40.081Z,42.43
2018-12-16T13:03:10.245Z,36.37
2018-12-16T13:05:40.396Z,36.90
2018-12-16T13:08:10.376Z,40.40
2018-12-16T13:10:40.683Z,37.73
2018-12-16T13:13:11.021Z,38.70
2018-12-16T13:15:41.126Z,32.80
2018-12-16T13:18:11.218Z,43.50
2018-12-16T13:20:41.256Z,36.63
2018-12-16T13:23:11.397Z,32.50
2018-12-16T13:25:58.062Z,45.40
2018-12-16T13:28:28.210Z,42.67
2018-12-16T13:30:58.251Z,45.10
2018-12-16T13:33:28.494Z,35.63
2018-12-16T13:35:58.624Z,39.37
2018-12-16T13:38:28.785Z,37.10
2018-12-16T13:40:58.970Z,51.30
2018-12-16T13:46:18.393Z,32.93
2018-12-16T13:48:48.663Z,39.90
2018-12-16T13:51:18.694Z,40.33
2018-12-16T13:53:48.722Z,39.50
2018-12-16T13:56:18.784Z,46.23
2018-12-16T13:58:48.861Z,36.53
2018-12-16T14:01:19.009Z,37.63
2018-12-16T14:03:49.042Z,35.97
2018-12-16T14:06:19.465Z,48.00
2018-12-16T14:08:49.597Z,48.63
2018-12-16T14:11:23.110Z,37.10
2018-12-16T14:13:54.093Z,37.87
2018-12-16T14:16:24.307Z,40.77
2018-12-16T14:18:54.521Z,47.77
2018-12-16T14:21:25.242Z,45.20
2018-12-16T14:23:55.460Z,41.87
2018-12-16T14:26:25.759Z,38.10
2018-12-16T14:28:56.330Z,41.03
2018-12-16T14:31:26.635Z,53.63
2018-12-16T14:33:56.875Z,45.30
2018-12-16T14:36:28.455Z,40.67
2018-12-16T14:38:59.016Z,41.33
2018-12-16T14:41:29.194Z,41.17
2018-12-16T14:43:59.361Z,41.90
2018-12-16T14:46:29.527Z,36.40
2018-12-16T14:48:59.976Z,43.00
2018-12-16T14:51:30.771Z,53.90
2018-12-16T14:54:01.360Z,48.07
2018-12-16T14:56:31.574Z,41.97
2018-12-16T14:59:01.723Z,34.23
2018-12-16T15:01:33.511Z,39.27
2018-12-16T15:04:03.625Z,45.40
2018-12-16T15:06:34.044Z,47.40
2018-12-16T15:09:06.508Z,40.10
2018-12-16T15:11:36.794Z,38.03
2018-12-16T15:14:06.982Z,45.23
2018-12-16T15:16:37.654Z,45.50
2018-12-16T15:19:07.988Z,42.57
2018-12-16T15:21:38.336Z,44.67
2018-12-16T15:24:08.840Z,40.20
2018-12-16T15:26:40.920Z,32.30
2018-12-16T15:29:11.412Z,40.67
2018-12-16T15:31:41.843Z,40.43
2018-12-16T15:34:11.833Z,50.50
2018-12-16T15:36:41.888Z,48.17
2018-12-16T15:39:11.988Z,42.00
2018-12-16T15:41:42.258Z,37.07
2018-12-16T15:44:12.333Z,37.23
2018-12-16T15:46:42.447Z,38.90
2018-12-16T15:49:12.732Z,40.03
2018-12-16T15:51:42.896Z,39.87
2018-12-16T15:54:13.720Z,34.93
2018-12-16T15:56:43.826Z,44.40
2018-12-16T15:59:14.291Z,32.13
2018-12-16T16:01:44.379Z,36.83
2018-12-16T16:04:14.444Z,43.30
2018-12-16T16:06:44.736Z,30.67
2018-12-16T16:09:15.024Z,38.60
2018-12-16T16:11:45.085Z,39.80
2018-12-16T16:14:15.255Z,40.47
2018-12-16T16:16:45.736Z,41.73
2018-12-16T16:19:15.894Z,34.73
2018-12-16T16:21:46.834Z,41.30
2018-12-16T16:24:17.097Z,35.10
2018-12-16T16:26:47.264Z,36.27
2018-12-16T16:29:17.453Z,44.73
2018-12-16T16:31:47.567Z,39.37
2018-12-16T16:34:17.622Z,44.57
2018-12-16T16:36:47.669Z,40.00
2018-12-16T16:39:17.693Z,39.03
2018-12-16T16:41:47.753Z,39.03
2018-12-16T16:44:17.783Z,43.23
2018-12-16T16:46:48.141Z,41.57
2018-12-16T16:49:18.468Z,38.33
2018-12-16T16:51:48.628Z,31.13
2018-12-16T16:54:18.931Z,39.33
2018-12-16T16:56:49.068Z,32.03
2018-12-16T16:59:19.589Z,34.37
2018-12-16T17:01:49.735Z,37.27
2018-12-16T17:04:19.997Z,28.30
2018-12-16T17:06:50.116Z,37.63
2018-12-16T17:09:20.550Z,29.00
2018-12-16T17:11:51.008Z,26.60
2018-12-16T17:14:21.114Z,31.40
2018-12-16T17:16:51.318Z,32.83
2018-12-16T17:19:21.825Z,33.90
2018-12-16T17:21:53.103Z,32.53
2018-12-16T17:24:23.496Z,34.87
2018-12-16T17:26:53.842Z,40.20
2018-12-16T17:29:23.954Z,33.13
2018-12-16T17:31:54.699Z,33.63
2018-12-16T17:34:24.964Z,36.00
2018-12-16T17:36:55.277Z,34.17
2018-12-16T17:39:25.438Z,31.77
2018-12-16T17:41:55.692Z,31.17
2018-12-16T17:44:26.124Z,35.87
2018-12-16T17:46:56.356Z,34.97
2018-12-16T17:49:26.482Z,40.43
2018-12-16T17:51:56.798Z,30.70
2018-12-16T17:54:26.934Z,33.37
2018-12-16T17:56:57.252Z,41.40
2018-12-16T17:59:27.797Z,39.10
2018-12-16T18:01:58.276Z,41.87
2018-12-16T18:04:28.359Z,33.73
2018-12-16T18:06:58.664Z,43.13
2018-12-16T18:09:28.815Z,36.70
2018-12-16T18:11:59.011Z,35.73
2018-12-16T18:14:29.277Z,38.97
2018-12-16T18:17:00.715Z,39.73
2018-12-16T18:19:30.971Z,37.70
2018-12-16T18:22:01.453Z,39.47
2018-12-16T18:24:31.703Z,37.93
2018-12-16T18:27:02.230Z,36.43
2018-12-16T18:29:32.739Z,33.47
2018-12-16T18:32:03.085Z,43.57
2018-12-16T18:34:33.229Z,28.50
2018-12-16T18:37:03.461Z,30.97
2018-12-16T18:39:33.653Z,41.77
2018-12-16T18:42:04.268Z,32.80
2018-12-16T18:44:34.662Z,31.57
2018-12-16T18:47:04.832Z,31.80
2018-12-16T18:49:34.870Z,38.63
2018-12-16T18:52:05.044Z,30.33
2018-12-16T18:54:35.208Z,27.67
2018-12-16T18:57:07.391Z,37.10
2018-12-16T18:59:37.443Z,27.10
2018-12-16T19:02:07.624Z,33.10
2018-12-16T19:04:37.857Z,29.10
2018-12-16T19:07:08.117Z,34.20
2018-12-16T19:09:38.263Z,31.90
2018-12-16T19:12:08.507Z,34.27
2018-12-16T19:14:39.211Z,32.00
2018-12-16T19:17:09.442Z,32.00
2018-12-16T19:19:39.755Z,31.30
2018-12-16T19:22:10.000Z,25.67
2018-12-16T19:24:40.685Z,32.23
2018-12-16T19:27:10.865Z,35.23
2018-12-16T19:29:41.119Z,34.07
2018-12-16T19:32:11.583Z,31.13
2018-12-16T19:34:41.696Z,31.43
2018-12-16T19:37:11.930Z,29.13
2018-12-16T19:39:42.313Z,29.40
2018-12-16T19:42:19.234Z,31.37
2018-12-16T19:44:49.342Z,30.60
2018-12-16T19:47:19.784Z,35.00
2018-12-16T19:49:50.060Z,35.80
2018-12-16T19:52:21.536Z,35.73
2018-12-16T19:54:52.562Z,38.00
2018-12-16T19:57:22.896Z,33.70
2018-12-16T19:59:54.676Z,33.30
2018-12-16T20:02:31.467Z,30.80
2018-12-16T20:05:08.137Z,31.83
2018-12-16T20:07:38.332Z,34.57
2018-12-16T20:10:08.617Z,27.67
2018-12-16T20:12:38.757Z,31.00
2018-12-16T20:15:09.213Z,32.87
2018-12-16T20:17:39.862Z,30.67
2018-12-16T20:20:10.852Z,31.73
2018-12-16T20:22:41.091Z,35.23
2018-12-16T20:25:11.293Z,33.60
2018-12-16T20:27:41.458Z,30.07
2018-12-16T20:30:12.189Z,31.73
2018-12-16T20:32:42.292Z,33.43
2018-12-16T20:35:12.533Z,34.57
2018-12-16T20:37:43.308Z,29.63
2018-12-16T20:40:13.354Z,35.17
2018-12-16T20:42:43.562Z,31.10
2018-12-16T20:45:13.778Z,30.83
2018-12-16T20:47:43.967Z,27.47
2018-12-16T20:50:14.137Z,33.80
2018-12-16T20:52:44.335Z,30.80
2018-12-16T20:55:14.530Z,29.87
2018-12-16T20:57:44.692Z,26.77
2018-12-16T21:00:14.971Z,33.40
2018-12-16T21:02:45.315Z,31.00
2018-12-16T21:05:15.718Z,25.83
2018-12-16T21:07:46.288Z,25.40
2018-12-16T21:10:16.416Z,30.70
2018-12-16T21:12:51.709Z,31.00
2018-12-16T21:16:27.447Z,40.97
2018-12-16T21:18:57.789Z,32.00
2018-12-16T21:21:28.392Z,28.00
2018-12-16T21:23:58.738Z,26.80
2018-12-16T21:26:28.977Z,24.70
2018-12-16T21:28:59.153Z,24.20
2018-12-16T21:31:29.239Z,23.93
2018-12-16T21:33:59.523Z,28.00
2018-12-16T21:36:30.000Z,23.43
2018-12-16T21:39:00.249Z,23.53
2018-12-16T21:41:30.428Z,27.53
2018-12-16T21:44:00.960Z,26.63
2018-12-16T21:46:31.246Z,24.13
2018-12-16T21:49:01.502Z,29.83
2018-12-16T21:51:31.654Z,26.50
2018-12-16T21:54:02.056Z,29.80
2018-12-16T21:56:32.277Z,20.97
2018-12-16T21:59:02.768Z,20.90
2018-12-16T22:01:32.866Z,21.57
2018-12-16T22:04:03.369Z,20.03
2018-12-16T22:06:33.867Z,24.50
2018-12-16T22:09:05.233Z,20.63
2018-12-16T22:11:35.440Z,20.13
2018-12-16T22:14:05.771Z,21.10
2018-12-16T22:16:35.806Z,21.90
2018-12-16T22:19:05.893Z,18.20
2018-12-16T22:21:36.119Z,21.13
2018-12-16T22:24:06.351Z,20.30
2018-12-16T22:26:38.564Z,23.70
2018-12-16T22:29:10.479Z,20.00
2018-12-16T22:31:40.519Z,18.63
2018-12-16T22:34:10.561Z,19.87
2018-12-16T22:36:40.584Z,20.27
2018-12-16T22:39:10.598Z,23.03
2018-12-16T22:41:41.131Z,22.43
2018-12-16T22:44:11.237Z,22.37
2018-12-16T22:46:41.328Z,23.10
2018-12-16T22:49:11.360Z,24.90
2018-12-16T22:51:41.414Z,26.47
2018-12-16T22:54:11.464Z,21.70
2018-12-16T22:56:41.484Z,29.80
2018-12-16T22:59:11.540Z,25.00
2018-12-16T23:01:41.565Z,19.57
2018-12-16T23:04:11.610Z,22.13
2018-12-16T23:06:41.647Z,23.00
2018-12-16T23:09:11.668Z,22.83
2018-12-16T23:11:41.655Z,27.13
2018-12-16T23:14:11.718Z,27.77
2018-12-16T23:16:41.746Z,21.33
2018-12-16T23:19:11.755Z,20.10
2018-12-16T23:21:41.743Z,19.27
2018-12-16T23:24:11.789Z,19.50
2018-12-16T23:26:41.725Z,23.00
2018-12-16T23:29:11.801Z,22.23
2018-12-16T23:31:41.762Z,21.13
2018-12-16T23:34:11.799Z,21.07
2018-12-16T23:36:41.818Z,23.70
2018-12-16T23:39:11.833Z,17.10
2018-12-16T23:41:41.841Z,20.87
2018-12-16T23:44:11.864Z,20.97
2018-12-16T23:46:48.362Z,22.53
2018-12-16T23:49:18.470Z,18.30
2018-12-16T23:51:48.754Z,16.97
2018-12-16T23:54:19.027Z,20.47
2018-12-16T23:56:49.667Z,18.17
2018-12-16T23:59:19.748Z,19.53
